createdAt,value
2018-12-01T00:00:14.327Z,6.53
2018-12-01T00:02:41.516Z,6.73
2018-12-01T00:05:08.589Z,7.10
2018-12-01T00:07:35.648Z,7.10
2018-12-01T00:10:02.728Z,6.30
2018-12-01T00:12:29.801Z,7.23
2018-12-01T00:14:56.877Z,6.37
2018-12-01T00:17:23.966Z,6.60
2018-12-01T00:19:51.078Z,6.53
2018-12-01T00:22:18.152Z,6.83
2018-12-01T00:24:45.263Z,7.00
2018-12-01T00:27:12.346Z,6.23
2018-12-01T00:29:39.444Z,6.80
2018-12-01T00:32:06.521Z,7.07
2018-12-01T00:34:33.609Z,7.00
2018-12-01T00:37:00.708Z,6.67
2018-12-01T00:39:27.785Z,6.60
2018-12-01T00:41:54.834Z,6.70
2018-12-01T00:44:21.909Z,7.13
2018-12-01T00:46:49.009Z,6.23
2018-12-01T00:49:16.104Z,6.93
2018-12-01T00:51:43.198Z,6.40
2018-12-01T00:54:10.302Z,6.33
2018-12-01T00:56:37.405Z,6.40
2018-12-01T00:59:04.714Z,6.40
2018-12-01T01:01:31.778Z,7.20
2018-12-01T01:03:58.837Z,6.30
2018-12-01T01:06:25.964Z,6.47
2018-12-01T01:08:53.169Z,6.13
2018-12-01T01:11:20.263Z,6.17
2018-12-01T01:13:47.366Z,6.20
2018-12-01T01:16:14.443Z,6.17
2018-12-01T01:18:41.532Z,6.63
2018-12-01T01:21:08.609Z,6.67
2018-12-01T01:23:35.697Z,6.30
2018-12-01T01:26:02.766Z,6.73
2018-12-01T01:28:29.841Z,6.67
2018-12-01T01:30:56.910Z,6.70
2018-12-01T01:33:27.946Z,6.30
2018-12-01T01:35:55.013Z,6.50
2018-12-01T01:38:22.110Z,6.40
2018-12-01T01:40:54.878Z,6.60
2018-12-01T01:43:21.970Z,5.90
2018-12-01T01:45:49.074Z,6.53
2018-12-01T01:48:16.139Z,5.83
2018-12-01T01:50:43.213Z,6.63
2018-12-01T01:53:10.302Z,6.30
2018-12-01T01:55:37.393Z,5.90
2018-12-01T01:58:04.547Z,6.33
2018-12-01T02:00:31.649Z,6.70
2018-12-01T02:02:58.726Z,6.33
2018-12-01T02:05:25.798Z,6.43
2018-12-01T02:07:52.865Z,5.97
2018-12-01T02:10:20.382Z,6.50
2018-12-01T02:12:47.450Z,5.90
2018-12-01T02:15:14.541Z,6.70
2018-12-01T02:17:41.681Z,5.73
2018-12-01T02:20:10.777Z,6.40
2018-12-01T02:22:37.881Z,6.27
2018-12-01T02:25:05.608Z,6.73
2018-12-01T02:27:32.673Z,6.30
2018-12-01T02:29:59.786Z,6.00
2018-12-01T02:32:26.835Z,5.87
2018-12-01T02:34:53.931Z,6.20
2018-12-01T02:37:21.034Z,6.60
2018-12-01T02:39:48.107Z,6.13
2018-12-01T02:42:15.186Z,6.10
2018-12-01T02:45:05.094Z,6.57
2018-12-01T02:47:32.864Z,6.10
2018-12-01T02:49:59.939Z,6.13
2018-12-01T02:52:27.014Z,6.33
2018-12-01T02:54:54.103Z,6.40
2018-12-01T02:57:21.197Z,6.17
2018-12-01T02:59:48.314Z,6.10
2018-12-01T03:02:15.440Z,6.13
2018-12-01T03:04:42.513Z,6.27
2018-12-01T03:07:09.597Z,5.90
2018-12-01T03:09:36.697Z,6.90
2018-12-01T03:12:03.887Z,6.27
2018-12-01T03:14:30.952Z,6.70
2018-12-01T03:16:58.024Z,6.73
2018-12-01T03:19:25.102Z,6.87
2018-12-01T03:21:52.187Z,7.07
2018-12-01T03:24:19.282Z,7.03
2018-12-01T03:26:46.376Z,7.03
2018-12-01T03:29:13.463Z,6.83
2018-12-01T03:31:40.588Z,6.73
2018-12-01T03:34:07.717Z,6.97
2018-12-01T03:36:34.801Z,6.93
2018-12-01T03:39:01.901Z,7.27
2018-12-01T03:41:29.010Z,6.53
2018-12-01T03:43:56.073Z,7.40
2018-12-01T03:46:23.153Z,7.10
2018-12-01T03:48:50.303Z,6.70
2018-12-01T03:51:17.392Z,7.07
2018-12-01T03:53:44.491Z,7.10
2018-12-01T03:56:11.598Z,6.83
2018-12-01T03:58:38.698Z,7.33
2018-12-01T04:01:05.802Z,6.57
2018-12-01T04:03:32.929Z,6.90
2018-12-01T04:05:59.989Z,6.73
2018-12-01T04:08:27.037Z,7.10
2018-12-01T04:10:54.112Z,7.13
2018-12-01T04:13:21.204Z,6.70
2018-12-01T04:15:48.309Z,7.60
2018-12-01T04:18:15.398Z,7.33
2018-12-01T04:20:42.453Z,6.67
2018-12-01T04:23:09.553Z,6.73
2018-12-01T04:25:36.628Z,7.67
2018-12-01T04:28:03.870Z,7.13
2018-12-01T04:30:30.977Z,8.00
2018-12-01T04:32:58.073Z,7.00
2018-12-01T04:35:25.165Z,7.03
2018-12-01T04:37:53.903Z,7.43
2018-12-01T04:40:21.028Z,6.80
2018-12-01T04:42:48.302Z,7.73
2018-12-01T04:45:15.629Z,7.03
2018-12-01T04:47:42.839Z,7.60
2018-12-01T04:50:11.038Z,7.47
2018-12-01T04:52:38.120Z,8.07
2018-12-01T04:55:07.052Z,8.17
2018-12-01T04:57:34.126Z,7.87
2018-12-01T05:00:01.221Z,7.37
2018-12-01T05:02:28.318Z,7.13
2018-12-01T05:04:55.462Z,7.77
2018-12-01T05:07:22.541Z,7.67
2018-12-01T05:09:49.613Z,7.10
2018-12-01T05:12:16.682Z,8.13
2018-12-01T05:14:43.773Z,7.27
2018-12-01T05:17:10.845Z,7.60
2018-12-01T05:19:37.897Z,8.07
2018-12-01T05:22:04.989Z,8.20
2018-12-01T05:24:32.089Z,8.03
2018-12-01T05:26:59.153Z,8.10
2018-12-01T05:29:26.270Z,7.83
2018-12-01T05:31:53.337Z,8.60
2018-12-01T05:34:20.407Z,7.97
2018-12-01T05:36:47.478Z,8.83
2018-12-01T05:39:14.548Z,8.43
2018-12-01T05:41:41.612Z,8.70
2018-12-01T05:44:08.697Z,8.50
2018-12-01T05:46:36.842Z,8.23
2018-12-01T05:49:02.885Z,7.90
2018-12-01T05:51:29.990Z,8.50
2018-12-01T05:53:57.097Z,8.37
2018-12-01T05:56:24.233Z,8.43
2018-12-01T05:58:51.306Z,7.97
2018-12-01T06:01:18.398Z,7.87
2018-12-01T06:03:45.493Z,8.97
2018-12-01T06:06:12.597Z,8.83
2018-12-01T06:08:39.660Z,8.73
2018-12-01T06:11:06.748Z,8.90
2018-12-01T06:13:33.828Z,8.40
2018-12-01T06:16:00.908Z,8.60
2018-12-01T06:18:27.968Z,8.67
2018-12-01T06:20:55.073Z,8.17
2018-12-01T06:23:22.224Z,8.53
2018-12-01T06:25:49.303Z,8.67
2018-12-01T06:28:16.369Z,8.80
2018-12-01T06:30:43.446Z,9.03
2018-12-01T06:33:10.530Z,8.50
2018-12-01T06:35:37.698Z,8.73
2018-12-01T06:38:04.881Z,8.67
2018-12-01T06:40:31.972Z,8.70
2018-12-01T06:42:59.070Z,8.90
2018-12-01T06:45:26.150Z,8.60
2018-12-01T06:47:53.271Z,8.90
2018-12-01T06:50:21.248Z,9.13
2018-12-01T06:52:48.580Z,7.70
2018-12-01T06:55:15.678Z,8.93
2018-12-01T06:57:43.841Z,7.73
2018-12-01T07:00:13.853Z,8.40
2018-12-01T07:02:41.375Z,8.33
2018-12-01T07:05:09.326Z,8.70
2018-12-01T07:07:36.420Z,8.30
2018-12-01T07:10:06.002Z,8.10
2018-12-01T07:12:33.100Z,8.77
2018-12-01T07:15:00.205Z,8.77
2018-12-01T07:17:27.279Z,9.17
2018-12-01T07:19:54.330Z,8.80
2018-12-01T07:22:21.412Z,9.10
2018-12-01T07:24:48.507Z,8.20
2018-12-01T07:27:15.592Z,8.93
2018-12-01T07:29:42.669Z,8.47
2018-12-01T07:32:09.782Z,9.23
2018-12-01T07:34:36.846Z,9.33
2018-12-01T07:37:04.010Z,9.13
2018-12-01T07:39:31.114Z,9.07
2018-12-01T07:41:58.189Z,8.80
2018-12-01T07:44:25.286Z,8.77
2018-12-01T07:46:52.378Z,9.07
2018-12-01T07:49:19.474Z,9.27
2018-12-01T07:51:46.586Z,8.67
2018-12-01T07:54:13.677Z,9.13
2018-12-01T07:56:40.752Z,9.20
2018-12-01T07:59:07.827Z,8.83
2018-12-01T08:01:34.896Z,9.10
2018-12-01T08:04:01.993Z,8.80
2018-12-01T08:06:29.077Z,8.60
2018-12-01T08:08:56.185Z,8.30
2018-12-01T08:11:23.285Z,9.07
2018-12-01T08:13:50.380Z,8.60
2018-12-01T08:16:17.474Z,9.00
2018-12-01T08:18:44.557Z,9.17
2018-12-01T08:21:11.650Z,8.97
2018-12-01T08:23:38.746Z,9.10
2018-12-01T08:26:06.117Z,8.77
2018-12-01T08:28:33.204Z,8.87
2018-12-01T08:31:00.297Z,8.60
2018-12-01T08:33:27.387Z,8.63
2018-12-01T08:35:54.487Z,9.00
2018-12-01T08:38:21.554Z,8.90
2018-12-01T08:40:48.613Z,8.90
2018-12-01T08:43:15.705Z,8.03
2018-12-01T08:45:42.785Z,8.87
2018-12-01T08:48:09.838Z,9.40
2018-12-01T08:50:37.136Z,8.83
2018-12-01T08:53:04.452Z,8.80
2018-12-01T08:55:31.556Z,8.70
2018-12-01T08:57:58.667Z,9.07
2018-12-01T09:00:28.964Z,8.53
2018-12-01T09:03:02.216Z,8.90
2018-12-01T09:05:29.323Z,8.27
2018-12-01T09:07:56.398Z,8.73
2018-12-01T09:10:23.493Z,8.97
2018-12-01T09:12:50.602Z,8.27
2018-12-01T09:15:17.730Z,8.83
2018-12-01T09:17:44.800Z,9.10
2018-12-01T09:20:12.674Z,8.30
2018-12-01T09:22:41.005Z,8.47
2018-12-01T09:25:09.509Z,8.53
2018-12-01T09:27:36.696Z,7.83
2018-12-01T09:30:20.593Z,8.50
2018-12-01T09:32:47.686Z,8.40
2018-12-01T09:35:14.790Z,9.10
2018-12-01T09:37:41.869Z,8.73
2018-12-01T09:40:10.934Z,9.27
2018-12-01T09:42:38.021Z,8.77
2018-12-01T09:45:08.679Z,8.27
2018-12-01T09:47:35.755Z,8.53
2018-12-01T09:50:03.101Z,8.47
2018-12-01T09:52:30.182Z,8.60
2018-12-01T09:54:57.272Z,7.90
2018-12-01T09:57:24.345Z,8.20
2018-12-01T09:59:51.397Z,9.00
2018-12-01T10:02:18.493Z,8.13
2018-12-01T10:04:45.591Z,8.73
2018-12-01T10:07:12.682Z,8.07
2018-12-01T10:09:39.759Z,8.80
2018-12-01T10:12:06.878Z,8.43
2018-12-01T10:14:33.953Z,7.77
2018-12-01T10:17:01.070Z,8.20
2018-12-01T10:19:28.182Z,8.20
2018-12-01T10:21:55.274Z,7.40
2018-12-01T10:24:22.358Z,7.97
2018-12-01T10:26:49.441Z,8.57
2018-12-01T10:29:16.550Z,8.17
2018-12-01T10:31:43.635Z,9.50
2018-12-01T10:34:10.726Z,8.03
2018-12-01T10:36:37.801Z,8.40
2018-12-01T10:39:07.618Z,8.13
2018-12-01T10:41:34.714Z,7.83
2018-12-01T10:44:01.831Z,8.13
2018-12-01T10:46:28.893Z,8.57
2018-12-01T10:48:55.973Z,7.57
2018-12-01T10:51:23.026Z,8.90
2018-12-01T10:53:50.101Z,8.47
2018-12-01T10:56:17.179Z,8.53
2018-12-01T10:58:44.288Z,7.50
2018-12-01T11:01:17.034Z,8.30
2018-12-01T11:03:46.934Z,8.10
2018-12-01T11:06:14.822Z,8.17
2018-12-01T11:08:41.886Z,7.90
2018-12-01T11:11:08.959Z,7.70
2018-12-01T11:13:36.064Z,7.77
2018-12-01T11:16:03.629Z,7.47
2018-12-01T11:18:30.738Z,7.83
2018-12-01T11:20:57.797Z,8.93
2018-12-01T11:23:24.912Z,7.97
2018-12-01T11:25:52.301Z,7.97
2018-12-01T11:28:19.485Z,8.23
2018-12-01T11:30:46.584Z,7.97
2018-12-01T11:33:13.666Z,7.73
2018-12-01T11:35:40.749Z,7.77
2018-12-01T11:38:08.078Z,7.77
2018-12-01T11:40:35.178Z,7.57
2018-12-01T11:43:02.281Z,7.20
2018-12-01T11:45:29.366Z,7.03
2018-12-01T11:47:56.454Z,7.73
2018-12-01T11:50:23.497Z,7.70
2018-12-01T11:52:50.598Z,7.33
2018-12-01T11:55:19.692Z,7.40
2018-12-01T11:57:46.733Z,7.77
2018-12-01T12:00:15.669Z,6.87
2018-12-01T12:02:42.791Z,6.90
2018-12-01T12:05:10.737Z,7.03
2018-12-01T12:07:49.315Z,6.90
2018-12-01T12:10:16.394Z,6.60
2018-12-01T12:12:43.470Z,6.53
2018-12-01T12:15:10.766Z,6.13
2018-12-01T12:17:38.065Z,6.27
2018-12-01T12:20:07.156Z,6.30
2018-12-01T12:22:34.362Z,5.97
2018-12-01T12:25:01.475Z,6.30
2018-12-01T12:27:28.544Z,6.27
2018-12-01T12:29:55.646Z,6.47
2018-12-01T12:32:22.725Z,6.53
2018-12-01T12:34:49.813Z,6.77
2018-12-01T12:37:16.890Z,6.67
2018-12-01T12:39:43.986Z,5.83
2018-12-01T12:42:11.053Z,5.97
2018-12-01T12:44:38.144Z,6.50
2018-12-01T12:47:05.254Z,5.83
2018-12-01T12:49:32.331Z,6.00
2018-12-01T12:51:59.453Z,6.30
2018-12-01T12:54:26.513Z,6.07
2018-12-01T12:56:53.609Z,5.93
2018-12-01T12:59:20.701Z,5.83
2018-12-01T13:01:47.807Z,6.30
2018-12-01T13:04:14.871Z,6.10
2018-12-01T13:06:41.965Z,5.87
2018-12-01T13:09:09.058Z,5.80
2018-12-01T13:11:36.134Z,5.90
2018-12-01T13:14:03.253Z,5.77
2018-12-01T13:16:30.374Z,5.63
2018-12-01T13:18:57.487Z,5.47
2018-12-01T13:21:24.586Z,6.07
2018-12-01T13:23:51.667Z,6.00
2018-12-01T13:26:18.764Z,5.73
2018-12-01T13:28:45.848Z,5.80
2018-12-01T13:31:12.943Z,5.53
2018-12-01T13:33:40.040Z,5.63
2018-12-01T13:36:07.136Z,5.40
2018-12-01T13:38:34.221Z,6.10
2018-12-01T13:41:01.309Z,5.27
2018-12-01T13:43:28.387Z,4.93
2018-12-01T13:45:55.482Z,5.90
2018-12-01T13:48:22.569Z,5.30
2018-12-01T13:50:49.663Z,5.20
2018-12-01T13:53:16.735Z,5.03
2018-12-01T13:55:43.830Z,4.90
2018-12-01T13:58:10.867Z,6.50
2018-12-01T14:00:38.310Z,5.77
2018-12-01T14:03:05.554Z,5.83
2018-12-01T14:05:32.674Z,6.00
2018-12-01T14:07:59.773Z,6.03
2018-12-01T14:10:27.877Z,6.00
2018-12-01T14:12:56.189Z,6.70
2018-12-01T14:15:23.415Z,6.20
2018-12-01T14:17:50.528Z,6.70
2018-12-01T14:20:17.852Z,6.87
2018-12-01T14:22:45.914Z,6.57
2018-12-01T14:25:13.836Z,6.57
2018-12-01T14:27:45.052Z,6.37
2018-12-01T14:30:13.792Z,6.80
2018-12-01T14:32:40.876Z,6.80
2018-12-01T14:35:27.780Z,5.57
2018-12-01T14:37:57.344Z,6.67
2018-12-01T14:40:24.458Z,7.13
2018-12-01T14:42:51.558Z,6.60
2018-12-01T14:45:18.670Z,5.83
2018-12-01T14:47:45.765Z,5.97
2018-12-01T14:50:13.708Z,6.77
2018-12-01T14:52:41.159Z,6.30
2018-12-01T14:55:12.113Z,5.90
2018-12-01T14:57:39.218Z,6.47
2018-12-01T15:00:09.596Z,5.77
2018-12-01T15:02:36.685Z,6.47
2018-12-01T15:05:03.882Z,6.10
2018-12-01T15:07:30.978Z,6.00
2018-12-01T15:09:58.073Z,6.50
2018-12-01T15:12:25.161Z,6.03
2018-12-01T15:14:52.257Z,6.67
2018-12-01T15:17:19.347Z,5.97
2018-12-01T15:19:46.437Z,5.93
2018-12-01T15:22:13.553Z,5.93
2018-12-01T15:24:40.665Z,6.37
2018-12-01T15:27:07.757Z,6.10
2018-12-01T15:29:34.872Z,6.00
2018-12-01T15:32:02.057Z,5.77
2018-12-01T15:34:29.137Z,5.73
2018-12-01T15:36:56.286Z,6.10
2018-12-01T15:39:25.958Z,5.10
2018-12-01T15:41:53.557Z,5.70
2018-12-01T15:44:20.645Z,5.40
2018-12-01T15:46:47.745Z,6.00
2018-12-01T15:49:14.827Z,5.93
2018-12-01T15:51:41.902Z,5.87
2018-12-01T15:54:08.985Z,6.03
2018-12-01T15:56:36.082Z,5.60
2018-12-01T15:59:03.166Z,5.37
2018-12-01T16:01:30.342Z,6.00
2018-12-01T16:03:57.451Z,5.30
2018-12-01T16:06:24.546Z,5.93
2018-12-01T16:08:51.634Z,5.17
2018-12-01T16:11:18.709Z,5.10
2018-12-01T16:13:45.797Z,5.67
2018-12-01T16:16:12.893Z,5.97
2018-12-01T16:18:39.959Z,5.07
2018-12-01T16:21:07.037Z,5.17
2018-12-01T16:23:34.139Z,5.10
2018-12-01T16:26:01.201Z,5.80
2018-12-01T16:28:28.289Z,5.37
2018-12-01T16:30:55.392Z,5.63
2018-12-01T16:33:22.495Z,5.23
2018-12-01T16:35:50.201Z,5.43
2018-12-01T16:38:20.986Z,5.90
2018-12-01T16:40:51.378Z,6.03
2018-12-01T16:43:18.499Z,5.37
2018-12-01T16:45:46.773Z,5.87
2018-12-01T16:48:13.845Z,5.30
2018-12-01T16:50:40.925Z,5.90
2018-12-01T16:53:09.482Z,5.90
2018-12-01T16:55:36.920Z,5.67
2018-12-01T16:58:04.085Z,5.70
2018-12-01T17:00:31.139Z,5.90
2018-12-01T17:02:58.864Z,5.50
2018-12-01T17:05:27.710Z,6.57
2018-12-01T17:07:54.880Z,5.53
2018-12-01T17:10:22.113Z,5.47
2018-12-01T17:12:51.312Z,5.50
2018-12-01T17:15:19.230Z,5.70
2018-12-01T17:17:46.432Z,5.87
2018-12-01T17:20:14.160Z,5.80
2018-12-01T17:22:42.377Z,5.77
2018-12-01T17:25:10.628Z,5.30
2018-12-01T17:27:37.721Z,5.67
2018-12-01T17:30:14.714Z,5.07
2018-12-01T17:32:41.790Z,5.40
2018-12-01T17:35:10.358Z,5.23
2018-12-01T17:37:37.421Z,5.80
2018-12-01T17:40:08.285Z,5.93
2018-12-01T17:42:35.392Z,5.97
2018-12-01T17:45:02.445Z,5.00
2018-12-01T17:47:29.539Z,5.47
2018-12-01T17:49:56.614Z,5.90
2018-12-01T17:52:23.697Z,5.10
2018-12-01T17:54:50.785Z,5.60
2018-12-01T17:57:17.868Z,5.70
2018-12-01T17:59:44.961Z,5.77
2018-12-01T18:02:12.032Z,5.80
2018-12-01T18:04:39.133Z,5.57
2018-12-01T18:07:06.216Z,5.63
2018-12-01T18:09:33.282Z,5.67
2018-12-01T18:12:00.367Z,5.30
2018-12-01T18:14:27.417Z,5.60
2018-12-01T18:16:54.530Z,5.87
2018-12-01T18:19:21.610Z,5.60
2018-12-01T18:21:48.710Z,5.83
2018-12-01T18:24:15.779Z,5.00
2018-12-01T18:26:42.849Z,5.33
2018-12-01T18:29:09.976Z,5.20
2018-12-01T18:31:37.041Z,5.97
2018-12-01T18:34:07.138Z,5.80
2018-12-01T18:36:34.231Z,5.30
2018-12-01T18:39:01.298Z,4.60
2018-12-01T18:41:28.386Z,5.17
2018-12-01T18:43:55.475Z,5.23
2018-12-01T18:46:22.577Z,5.23
2018-12-01T18:48:49.666Z,5.33
2018-12-01T18:51:16.774Z,5.50
2018-12-01T18:53:43.842Z,5.03
2018-12-01T18:56:10.930Z,5.13
2018-12-01T18:58:37.985Z,4.80
2018-12-01T19:01:06.443Z,4.83
2018-12-01T19:03:34.842Z,5.07
2018-12-01T19:06:01.934Z,4.83
2018-12-01T19:08:29.000Z,5.03
2018-12-01T19:10:56.089Z,4.90
2018-12-01T19:13:23.140Z,5.10
2018-12-01T19:15:50.260Z,4.90
2018-12-01T19:18:17.359Z,5.37
2018-12-01T19:20:44.449Z,5.43
2018-12-01T19:23:12.773Z,4.73
2018-12-01T19:25:42.113Z,5.17
2018-12-01T19:28:09.309Z,5.30
2018-12-01T19:30:36.390Z,4.70
2018-12-01T19:33:22.311Z,5.30
2018-12-01T19:35:50.645Z,4.90
2018-12-01T19:38:19.462Z,5.03
2018-12-01T19:40:46.621Z,5.00
2018-12-01T19:43:13.708Z,5.07
2018-12-01T19:45:40.825Z,4.70
2018-12-01T19:48:08.674Z,4.97
2018-12-01T19:50:37.478Z,4.43
2018-12-01T19:53:05.916Z,4.87
2018-12-01T19:55:33.037Z,4.53
2018-12-01T19:58:01.844Z,3.80
2018-12-01T20:00:29.510Z,4.57
2018-12-01T20:02:58.149Z,4.27
2018-12-01T20:05:25.226Z,4.03
2018-12-01T20:07:52.307Z,4.87
2018-12-01T20:10:24.725Z,4.27
2018-12-01T20:12:57.225Z,4.87
2018-12-01T20:15:27.975Z,4.40
2018-12-01T20:17:55.060Z,4.30
2018-12-01T20:20:22.158Z,4.13
2018-12-01T20:22:49.229Z,4.40
2018-12-01T20:25:17.493Z,5.20
2018-12-01T20:27:43.482Z,5.10
2018-12-01T20:30:14.141Z,4.90
2018-12-01T20:32:41.216Z,4.13
2018-12-01T20:35:09.360Z,4.80
2018-12-01T20:37:36.475Z,4.20
2018-12-01T20:40:08.790Z,4.50
2018-12-01T20:42:35.861Z,4.23
2018-12-01T20:45:02.994Z,5.10
2018-12-01T20:47:30.074Z,4.50
2018-12-01T20:49:57.167Z,4.47
2018-12-01T20:52:24.282Z,4.33
2018-12-01T20:54:51.394Z,4.40
2018-12-01T20:57:27.591Z,4.50
2018-12-01T20:59:54.710Z,4.30
2018-12-01T21:02:21.795Z,4.73
2018-12-01T21:04:48.899Z,4.43
2018-12-01T21:07:15.982Z,5.17
2018-12-01T21:09:43.059Z,4.17
2018-12-01T21:12:11.173Z,4.23
2018-12-01T21:14:38.291Z,4.30
2018-12-01T21:17:05.448Z,4.40
2018-12-01T21:19:32.554Z,4.70
2018-12-01T21:21:59.638Z,4.57
2018-12-01T21:24:26.750Z,4.60
2018-12-01T21:26:53.841Z,4.30
2018-12-01T21:29:20.910Z,4.27
2018-12-01T21:31:47.991Z,3.63
2018-12-01T21:34:15.073Z,4.30
2018-12-01T21:36:42.172Z,4.13
2018-12-01T21:39:09.282Z,4.30
2018-12-01T21:41:36.356Z,3.80
2018-12-01T21:44:03.505Z,4.30
2018-12-01T21:46:30.645Z,4.23
2018-12-01T21:48:57.761Z,3.73
2018-12-01T21:51:24.846Z,4.00
2018-12-01T21:53:51.921Z,4.13
2018-12-01T21:56:19.018Z,3.97
2018-12-01T21:58:46.098Z,4.23
2018-12-01T22:01:13.190Z,4.10
2018-12-01T22:03:40.281Z,4.13
2018-12-01T22:06:07.430Z,3.67
2018-12-01T22:08:35.406Z,3.67
2018-12-01T22:11:02.530Z,4.10
2018-12-01T22:13:29.615Z,3.90
2018-12-01T22:15:56.713Z,3.70
2018-12-01T22:18:24.339Z,4.00
2018-12-01T22:20:51.442Z,4.30
2018-12-01T22:23:18.557Z,4.33
2018-12-01T22:25:45.662Z,4.30
2018-12-01T22:28:13.329Z,4.37
2018-12-01T22:30:41.126Z,4.00
2018-12-01T22:33:11.004Z,4.10
2018-12-01T22:35:39.343Z,3.63
2018-12-01T22:38:06.477Z,3.47
2018-12-01T22:40:33.885Z,4.03
2018-12-01T22:43:02.759Z,3.57
2018-12-01T22:45:29.871Z,3.60
2018-12-01T22:47:57.481Z,3.60
2018-12-01T22:50:24.568Z,3.77
2018-12-01T22:52:52.287Z,3.90
2018-12-01T22:55:21.327Z,3.67
2018-12-01T22:57:51.400Z,3.60
2018-12-01T23:00:21.768Z,4.10
2018-12-01T23:02:48.830Z,3.73
2018-12-01T23:05:17.038Z,4.20
2018-12-01T23:07:43.002Z,3.73
2018-12-01T23:10:11.121Z,3.60
2018-12-01T23:12:38.612Z,3.70
2018-12-01T23:15:07.653Z,3.63
2018-12-01T23:17:34.747Z,3.20
2018-12-01T23:20:01.837Z,3.70
2018-12-01T23:22:28.936Z,4.23
2018-12-01T23:24:56.038Z,3.70
2018-12-01T23:27:23.122Z,3.70
2018-12-01T23:29:50.213Z,3.70
2018-12-01T23:32:17.293Z,3.37
2018-12-01T23:34:44.415Z,3.00
2018-12-01T23:37:11.509Z,3.60
2018-12-01T23:39:38.614Z,3.30
2018-12-01T23:42:05.714Z,3.70
2018-12-01T23:44:32.825Z,3.37
2018-12-01T23:46:59.905Z,3.30
2018-12-01T23:49:27.021Z,3.60
2018-12-01T23:51:54.140Z,3.43
2018-12-01T23:54:21.234Z,3.23
2018-12-01T23:56:48.338Z,3.03
2018-12-01T23:59:15.441Z,3.60
